Time,TemperatureF,DewpointF,PressureIn,WindDirection,WindDirectionDegrees,WindSpeedMPH,WindSpeedGustMPH,Humidity,HourlyPrecipIn,Conditions,Clouds,dailyrainin,SoftwareType,DateUTC
2013-01-29 00:11:00,59.8,58.0,30.27,ESE,115,0.0,1.0,94,0.00,,,0.00,weatherlink.com 1.10,2013-01-29 05:11:00,
2013-01-29 00:26:00,60.2,59.0,30.27,ESE,115,0.0,1.0,94,0.00,,,0.00,weatherlink.com 1.10,2013-01-29 05:26:00,
2013-01-29 00:41:00,60.6,59.0,30.27,ESE,115,0.0,1.0,94,0.00,,,0.00,weatherlink.com 1.10,2013-01-29 05:41:00,
2013-01-29 00:56:00,60.3,59.0,30.27,ESE,115,0.0,0.0,94,0.00,,,0.00,weatherlink.com 1.10,2013-01-29 05:56:00,
2013-01-29 01:11:00,59.8,58.0,30.27,ESE,115,0.0,0.0,94,0.00,,,0.00,weatherlink.com 1.10,2013-01-29 06:11:00,
2013-01-29 01:26:00,59.4,58.0,30.26,ESE,115,0.0,0.0,94,0.00,,,0.00,weatherlink.com 1.10,2013-01-29 06:26:00,
2013-01-29 01:41:00,59.0,57.0,30.25,ESE,115,0.0,0.0,94,0.00,,,0.00,weatherlink.com 1.10,2013-01-29 06:41:00,
2013-01-29 01:56:00,58.7,57.0,30.25,ESE,115,0.0,0.0,94,0.00,,,0.00,weatherlink.com 1.10,2013-01-29 06:56:00,
2013-01-29 02:11:00,58.4,57.0,30.25,ESE,115,0.0,0.0,94,0.00,,,0.00,weatherlink.com 1.10,2013-01-29 07:11:00,
2013-01-29 02:26:00,58.2,57.0,30.24,ESE,115,0.0,0.0,94,0.00,,,0.00,weatherlink.com 1.10,2013-01-29 07:26:00,
2013-01-29 02:41:00,57.7,56.0,30.24,ESE,115,0.0,0.0,94,0.00,,,0.00,weatherlink.com 1.10,2013-01-29 07:41:00,
2013-01-29 02:57:00,57.4,56.0,30.24,ESE,115,0.0,0.0,94,0.00,,,0.00,weatherlink.com 1.10,2013-01-29 07:57:00,
2013-01-29 03:12:00,57.6,56.0,30.24,ESE,115,0.0,0.0,95,0.00,,,0.00,weatherlink.com 1.10,2013-01-29 08:12:00,
2013-01-29 03:27:00,57.4,56.0,30.23,ESE,115,1.0,2.0,95,0.00,,,0.00,weatherlink.com 1.10,2013-01-29 08:27:00,
2013-01-29 03:42:00,57.2,56.0,30.23,ESE,115,0.0,1.0,95,0.00,,,0.00,weatherlink.com 1.10,2013-01-29 08:42:00,
2013-01-29 03:57:00,57.3,56.0,30.23,ESE,115,0.0,3.0,95,0.00,,,0.00,weatherlink.com 1.10,2013-01-29 08:57:00,
2013-01-29 04:12:00,57.6,56.0,30.23,ESE,115,0.0,2.0,95,0.00,,,0.00,weatherlink.com 1.10,2013-01-29 09:12:00,
2013-01-29 04:27:00,57.9,57.0,30.23,ESE,115,1.0,1.0,95,0.00,,,0.00,weatherlink.com 1.10,2013-01-29 09:27:00,
2013-01-29 04:42:00,58.1,57.0,30.23,ESE,115,0.0,1.0,95,0.00,,,0.00,weatherlink.com 1.10,2013-01-29 09:42:00,
2013-01-29 04:57:00,58.2,57.0,30.22,ESE,115,0.0,0.0,95,0.00,,,0.00,weatherlink.com 1.10,2013-01-29 09:57:00,
2013-01-29 05:12:00,57.9,57.0,30.22,ESE,115,0.0,0.0,95,0.00,,,0.00,weatherlink.com 1.10,2013-01-29 10:12:00,
2013-01-29 05:27:00,57.8,56.0,30.22,ESE,115,0.0,0.0,95,0.00,,,0.00,weatherlink.com 1.10,2013-01-29 10:27:00,
2013-01-29 05:42:00,57.8,56.0,30.22,ESE,115,0.0,0.0,95,0.00,,,0.00,weatherlink.com 1.10,2013-01-29 10:42:00,
2013-01-29 05:57:00,57.6,56.0,30.22,ESE,115,0.0,1.0,95,0.00,,,0.00,weatherlink.com 1.10,2013-01-29 10:57:00,
2013-01-29 06:12:00,57.7,56.0,30.23,ESE,115,0.0,1.0,95,0.00,,,0.00,weatherlink.com 1.10,2013-01-29 11:12:00,
2013-01-29 06:27:00,58.1,57.0,30.23,ESE,115,0.0,1.0,95,0.00,,,0.00,weatherlink.com 1.10,2013-01-29 11:27:00,
2013-01-29 06:42:00,58.6,58.0,30.24,ESE,115,0.0,0.0,96,0.00,,,0.00,weatherlink.com 1.10,2013-01-29 11:42:00,
2013-01-29 06:57:00,58.0,57.0,30.24,ESE,115,0.0,0.0,95,0.00,,,0.00,weatherlink.com 1.10,2013-01-29 11:57:00,
2013-01-29 07:12:00,57.4,56.0,30.24,ESE,115,0.0,0.0,95,0.00,,,0.00,weatherlink.com 1.10,2013-01-29 12:12:00,
2013-01-29 07:27:00,57.0,56.0,30.24,ESE,115,0.0,0.0,95,0.00,,,0.00,weatherlink.com 1.10,2013-01-29 12:27:00,
2013-01-29 07:42:00,57.0,56.0,30.24,ESE,115,0.0,0.0,95,0.00,,,0.00,weatherlink.com 1.10,2013-01-29 12:42:00,
2013-01-29 07:57:00,59.1,58.0,30.24,ESE,115,0.0,0.0,96,0.00,,,0.00,weatherlink.com 1.10,2013-01-29 12:57:00,
2013-01-29 08:12:00,61.6,61.0,30.24,ESE,115,0.0,0.0,96,0.00,,,0.00,weatherlink.com 1.10,2013-01-29 13:12:00,
2013-01-29 08:27:00,63.5,62.0,30.25,ESE,115,0.0,1.0,96,0.00,,,0.00,weatherlink.com 1.10,2013-01-29 13:27:00,
2013-01-29 08:42:00,65.5,64.0,30.25,ESE,115,0.0,3.0,96,0.00,,,0.00,weatherlink.com 1.10,2013-01-29 13:42:00,
2013-01-29 08:57:00,67.1,66.0,30.25,ESE,115,0.0,2.0,96,0.00,,,0.00,weatherlink.com 1.10,2013-01-29 13:57:00,
2013-01-29 09:12:00,68.3,67.0,30.25,South,174,0.0,5.0,96,0.00,,,0.00,weatherlink.com 1.10,2013-01-29 14:12:00,
2013-01-29 09:27:00,69.1,67.0,30.26,South,186,8.0,8.0,94,0.00,,,0.00,weatherlink.com 1.10,2013-01-29 14:27:00,
2013-01-29 09:42:00,71.5,68.0,30.26,SSE,164,1.0,6.0,89,0.00,,,0.00,weatherlink.com 1.10,2013-01-29 14:42:00,
2013-01-29 09:57:00,72.5,68.0,30.25,South,178,8.0,9.0,85,0.00,,,0.00,weatherlink.com 1.10,2013-01-29 14:57:00,
2013-01-29 10:12:00,74.0,69.0,30.25,South,178,2.0,9.0,83,0.00,,,0.00,weatherlink.com 1.10,2013-01-29 15:12:00,
2013-01-29 10:27:00,75.7,69.0,30.25,South,186,2.0,9.0,79,0.00,,,0.00,weatherlink.com 1.10,2013-01-29 15:27:00,
2013-01-29 10:42:00,76.6,69.0,30.25,South,171,5.0,7.0,78,0.00,,,0.00,weatherlink.com 1.10,2013-01-29 15:42:00,
2013-01-29 10:57:00,77.1,69.0,30.25,East,86,7.0,10.0,75,0.00,,,0.00,weatherlink.com 1.10,2013-01-29 15:57:00,
2013-01-29 11:12:00,77.4,69.0,30.24,ESE,117,2.0,10.0,74,0.00,,,0.00,weatherlink.com 1.10,2013-01-29 16:12:00,
2013-01-29 11:28:00,75.9,68.0,30.24,East,101,5.0,9.0,77,0.00,,,0.00,weatherlink.com 1.10,2013-01-29 16:28:00,
2013-01-29 11:43:00,74.2,67.0,30.23,SE,144,9.0,11.0,79,0.00,,,0.00,weatherlink.com 1.10,2013-01-29 16:43:00,
2013-01-29 11:58:00,76.8,69.0,30.22,SE,129,1.0,10.0,78,0.00,,,0.00,weatherlink.com 1.10,2013-01-29 16:58:00,
2013-01-29 12:13:00,77.0,69.0,30.21,SSE,151,7.0,11.0,76,0.00,,,0.00,weatherlink.com 1.10,2013-01-29 17:13:00,
2013-01-29 12:28:00,77.4,69.0,30.20,East,99,5.0,10.0,76,0.00,,,0.00,weatherlink.com 1.10,2013-01-29 17:28:00,
2013-01-29 12:43:00,78.0,70.0,30.19,SE,138,3.0,11.0,76,0.00,,,0.00,weatherlink.com 1.10,2013-01-29 17:43:00,
2013-01-29 12:58:00,77.3,69.0,30.18,SSE,147,2.0,14.0,75,0.00,,,0.00,weatherlink.com 1.10,2013-01-29 17:58:00,
2013-01-29 13:13:00,75.9,69.0,30.18,East,96,1.0,11.0,78,0.00,,,0.00,weatherlink.com 1.10,2013-01-29 18:13:00,
2013-01-29 13:28:00,75.6,69.0,30.17,South,187,12.0,12.0,79,0.00,,,0.00,weatherlink.com 1.10,2013-01-29 18:28:00,
2013-01-29 13:43:00,76.8,69.0,30.16,SE,140,6.0,15.0,78,0.00,,,0.00,weatherlink.com 1.10,2013-01-29 18:43:00,
2013-01-29 13:58:00,76.5,69.0,30.15,SE,124,5.0,13.0,77,0.00,,,0.00,weatherlink.com 1.10,2013-01-29 18:58:00,
2013-01-29 14:13:00,76.0,69.0,30.15,South,183,8.0,14.0,80,0.00,,,0.00,weatherlink.com 1.10,2013-01-29 19:13:00,
2013-01-29 14:28:00,75.2,69.0,30.15,SSE,159,7.0,13.0,80,0.00,,,0.00,weatherlink.com 1.10,2013-01-29 19:28:00,
2013-01-29 14:43:00,76.6,69.0,30.14,South,171,6.0,10.0,77,0.00,,,0.00,weatherlink.com 1.10,2013-01-29 19:43:00,
2013-01-29 14:58:00,76.3,69.0,30.14,SSE,152,8.0,18.0,78,0.00,,,0.00,weatherlink.com 1.10,2013-01-29 19:58:00,
2013-01-29 15:13:00,75.3,68.0,30.14,SSE,151,0.0,13.0,79,0.00,,,0.00,weatherlink.com 1.10,2013-01-29 20:13:00,
2013-01-29 15:28:00,76.3,69.0,30.14,SE,138,5.0,13.0,77,0.00,,,0.00,weatherlink.com 1.10,2013-01-29 20:28:00,
2013-01-29 15:43:00,75.0,68.0,30.14,SSE,147,5.0,15.0,80,0.00,,,0.00,weatherlink.com 1.10,2013-01-29 20:43:00,
2013-01-29 15:58:00,75.1,69.0,30.13,South,177,3.0,15.0,80,0.00,,,0.00,weatherlink.com 1.10,2013-01-29 20:58:00,
2013-01-29 16:13:00,74.4,68.0,30.13,SE,132,5.0,15.0,81,0.00,,,0.00,weatherlink.com 1.10,2013-01-29 21:13:00,
2013-01-29 16:28:00,74.0,69.0,30.14,ESE,120,5.0,15.0,83,0.00,,,0.00,weatherlink.com 1.10,2013-01-29 21:28:00,
2013-01-29 16:43:00,73.8,68.0,30.13,South,180,5.0,18.0,83,0.00,,,0.00,weatherlink.com 1.10,2013-01-29 21:43:00,
2013-01-29 16:58:00,73.3,68.0,30.13,SSE,147,3.0,11.0,83,0.00,,,0.00,weatherlink.com 1.10,2013-01-29 21:58:00,
2013-01-29 17:13:00,72.2,68.0,30.13,SE,134,9.0,12.0,85,0.00,,,0.00,weatherlink.com 1.10,2013-01-29 22:13:00,
2013-01-29 17:28:00,71.3,67.0,30.13,ESE,123,1.0,12.0,87,0.00,,,0.00,weatherlink.com 1.10,2013-01-29 22:28:00,
2013-01-29 17:43:00,70.6,67.0,30.13,SSE,155,6.0,12.0,87,0.00,,,0.00,weatherlink.com 1.10,2013-01-29 22:43:00,
2013-01-29 17:58:00,70.0,66.0,30.12,SE,132,8.0,9.0,88,0.00,,,0.00,weatherlink.com 1.10,2013-01-29 22:58:00,
2013-01-29 18:13:00,69.4,66.0,30.13,SE,138,2.0,11.0,89,0.00,,,0.00,weatherlink.com 1.10,2013-01-29 23:13:00,
2013-01-29 18:28:00,69.1,66.0,30.13,SSE,151,2.0,10.0,89,0.00,,,0.00,weatherlink.com 1.10,2013-01-29 23:28:00,
2013-01-29 18:43:00,69.0,66.0,30.13,ESE,117,3.0,13.0,90,0.00,,,0.00,weatherlink.com 1.10,2013-01-29 23:43:00,
2013-01-29 18:58:00,68.8,66.0,30.12,SSE,159,6.0,11.0,90,0.00,,,0.00,weatherlink.com 1.10,2013-01-29 23:58:00,
2013-01-29 19:13:00,68.7,66.0,30.12,SSE,165,7.0,11.0,90,0.00,,,0.00,weatherlink.com 1.10,2013-01-30 00:13:00,
2013-01-29 19:28:00,68.8,66.0,30.12,SSE,153,3.0,10.0,90,0.00,,,0.00,weatherlink.com 1.10,2013-01-30 00:28:00,
2013-01-29 19:43:00,68.8,66.0,30.12,SE,144,9.0,13.0,90,0.00,,,0.00,weatherlink.com 1.10,2013-01-30 00:43:00,
2013-01-29 19:58:00,68.9,66.0,30.12,SSE,168,4.0,13.0,90,0.00,,,0.00,weatherlink.com 1.10,2013-01-30 00:58:00,
2013-01-29 20:13:00,69.0,66.0,30.12,SE,143,9.0,12.0,90,0.00,,,0.00,weatherlink.com 1.10,2013-01-30 01:13:00,
2013-01-29 20:28:00,68.9,66.0,30.11,SSE,161,4.0,14.0,89,0.00,,,0.00,weatherlink.com 1.10,2013-01-30 01:28:00,
2013-01-29 20:43:00,68.9,66.0,30.11,SSE,159,7.0,17.0,89,0.00,,,0.00,weatherlink.com 1.10,2013-01-30 01:43:00,
2013-01-29 20:58:00,69.0,66.0,30.11,South,182,5.0,14.0,89,0.00,,,0.00,weatherlink.com 1.10,2013-01-30 01:58:00,
2013-01-29 21:13:00,68.8,66.0,30.11,SSE,154,4.0,11.0,89,0.00,,,0.00,weatherlink.com 1.10,2013-01-30 02:13:00,
2013-01-29 21:28:00,68.7,65.0,30.11,SSE,168,6.0,13.0,89,0.00,,,0.00,weatherlink.com 1.10,2013-01-30 02:28:00,
2013-01-29 21:43:00,68.7,65.0,30.12,SSE,150,5.0,10.0,88,0.00,,,0.00,weatherlink.com 1.10,2013-01-30 02:43:00,
2013-01-29 21:58:00,68.6,65.0,30.12,South,172,5.0,11.0,88,0.00,,,0.00,weatherlink.com 1.10,2013-01-30 02:58:00,
2013-01-29 22:13:00,68.7,65.0,30.11,SSE,166,1.0,12.0,88,0.00,,,0.00,weatherlink.com 1.10,2013-01-30 03:13:00,
2013-01-29 22:28:00,68.8,65.0,30.11,SSW,198,4.0,9.0,88,0.00,,,0.00,weatherlink.com 1.10,2013-01-30 03:28:00,
2013-01-29 22:43:00,69.2,65.0,30.11,South,180,11.0,11.0,87,0.00,,,0.00,weatherlink.com 1.10,2013-01-30 03:43:00,
2013-01-29 22:58:00,69.1,65.0,30.11,SSW,194,4.0,15.0,87,0.00,,,0.00,weatherlink.com 1.10,2013-01-30 03:58:00,
2013-01-29 23:13:00,69.1,65.0,30.12,South,169,5.0,10.0,87,0.00,,,0.00,weatherlink.com 1.10,2013-01-30 04:13:00,
2013-01-29 23:28:00,69.2,65.0,30.12,SSE,159,0.0,11.0,87,0.00,,,0.00,weatherlink.com 1.10,2013-01-30 04:28:00,
2013-01-29 23:43:00,68.7,65.0,30.12,SSE,163,4.0,8.0,87,0.00,,,0.00,weatherlink.com 1.10,2013-01-30 04:43:00,
2013-01-29 23:58:00,68.5,65.0,30.11,SSW,192,1.0,8.0,87,0.00,,,0.00,weatherlink.com 1.10,2013-01-30 04:58:00,